createdAt,value
2023-04-24T00:01:46.509Z,100921.53
2023-04-24T00:06:43.871Z,100901.75
2023-04-24T00:11:37.190Z,100925.19
2023-04-24T00:16:37.494Z,100802.84
2023-04-24T00:21:31.125Z,100924.50
2023-04-24T00:26:24.262Z,100911.25
2023-04-24T00:31:17.436Z,100917.22
2023-04-24T00:36:12.002Z,100865.44
2023-04-24T00:41:05.227Z,100839.50
2023-04-24T00:45:58.449Z,100907.81
2023-04-24T00:50:51.759Z,100884.59
2023-04-24T00:55:46.922Z,100901.25
2023-04-24T01:00:40.542Z,100897.94
2023-04-24T01:05:34.197Z,100876.88
2023-04-24T01:10:29.722Z,100884.50
2023-04-24T01:15:24.577Z,100878.03
2023-04-24T01:20:19.283Z,100882.22
2023-04-24T01:25:13.889Z,100884.72
2023-04-24T01:30:08.937Z,100777.09
2023-04-24T01:35:02.904Z,100829.72
2023-04-24T01:39:56.241Z,100808.06
2023-04-24T01:44:51.308Z,100864.72
2023-04-24T01:49:44.794Z,100864.72
2023-04-24T01:54:39.491Z,100844.97
2023-04-24T01:59:35.453Z,100853.31
2023-04-24T02:04:30.169Z,100861.84
2023-04-24T02:09:24.016Z,100850.47
2023-04-24T02:14:17.598Z,100815.84
2023-04-24T02:19:10.808Z,100836.16
2023-04-24T02:24:05.594Z,100767.75
2023-04-24T02:28:58.769Z,100713.72
2023-04-24T02:33:51.993Z,100787.03
2023-04-24T02:38:45.232Z,100804.66
2023-04-24T02:43:41.268Z,100802.38
2023-04-24T02:48:34.624Z,100715.34
2023-04-24T02:53:27.828Z,100829.00
2023-04-24T02:58:21.612Z,100809.69
2023-04-24T03:03:16.644Z,100800.31
2023-04-24T03:08:09.968Z,100798.75
2023-04-24T03:13:03.463Z,100756.22
2023-04-24T03:17:57.018Z,100772.44
2023-04-24T03:22:51.949Z,100850.53
2023-04-24T03:27:45.940Z,100835.09
2023-04-24T03:32:54.907Z,100807.31
2023-04-24T03:37:54.493Z,100818.91
2023-04-24T03:43:06.153Z,100803.78
2023-04-24T03:47:59.768Z,100861.06
2023-04-24T03:52:55.148Z,100736.31
2023-04-24T03:58:00.610Z,100725.50
2023-04-24T04:02:54.380Z,100678.03
2023-04-24T04:07:48.548Z,100657.78
2023-04-24T04:12:44.939Z,100811.78
2023-04-24T04:17:41.928Z,100835.34
2023-04-24T04:22:35.795Z,100692.91
2023-04-24T04:27:35.732Z,100859.56
2023-04-24T04:32:36.296Z,100671.25
2023-04-24T04:37:32.365Z,100751.75
2023-04-24T04:42:37.074Z,100685.59
2023-04-24T04:47:33.811Z,100714.44
2023-04-24T04:52:31.845Z,100728.91
2023-04-24T04:57:46.537Z,100848.94
2023-04-24T05:02:43.491Z,100876.16
2023-04-24T05:07:39.110Z,100872.81
2023-04-24T05:12:32.452Z,100801.84
2023-04-24T05:17:29.336Z,100875.81
2023-04-24T05:22:25.068Z,100766.63
2023-04-24T05:27:21.720Z,100860.38
2023-04-24T05:32:16.145Z,100869.72
2023-04-24T05:37:11.097Z,100870.88
2023-04-24T05:42:05.622Z,100862.13
2023-04-24T05:47:00.233Z,100843.63
2023-04-24T05:51:53.475Z,100838.16
2023-04-24T05:56:47.946Z,100855.66
2023-04-24T06:01:50.976Z,100849.41
2023-04-24T06:06:51.894Z,100845.13
2023-04-24T06:11:45.547Z,100839.13
2023-04-24T06:16:41.132Z,100857.78
2023-04-24T06:21:58.513Z,100787.50
2023-04-24T06:26:52.293Z,100818.59
2023-04-24T06:31:45.756Z,100860.38
2023-04-24T06:36:39.708Z,100850.31
2023-04-24T06:41:34.327Z,100783.72
2023-04-24T06:46:29.637Z,100814.00
2023-04-24T06:51:22.901Z,100841.25
2023-04-24T06:56:16.196Z,100763.09
2023-04-24T07:01:10.846Z,100864.72
2023-04-24T07:06:04.482Z,100818.53
2023-04-24T07:10:57.824Z,100832.88
2023-04-24T07:15:52.129Z,100863.69
2023-04-24T07:20:47.072Z,100857.09
2023-04-24T07:25:40.548Z,100831.19
2023-04-24T07:30:34.673Z,100846.06
2023-04-24T07:35:29.910Z,100861.66
2023-04-24T07:40:29.393Z,100705.41
2023-04-24T07:45:24.178Z,100853.31
2023-04-24T07:50:17.489Z,100832.03
2023-04-24T07:55:10.632Z,100855.53
2023-04-24T08:00:06.992Z,100842.28
2023-04-24T08:05:05.207Z,100747.03
2023-04-24T08:09:58.437Z,100842.59
2023-04-24T08:14:51.769Z,100731.31
2023-04-24T08:19:49.781Z,100846.72
2023-04-24T08:24:43.032Z,100809.94
2023-04-24T08:29:36.554Z,100719.66
2023-04-24T08:34:29.786Z,100816.13
2023-04-24T08:39:24.541Z,100786.63
2023-04-24T08:44:18.905Z,100765.16
2023-04-24T08:49:13.894Z,100782.69
2023-04-24T08:54:12.780Z,100808.41
2023-04-24T08:59:08.328Z,100786.63
2023-04-24T09:04:04.763Z,100776.84
2023-04-24T09:08:59.411Z,100748.22
2023-04-24T09:13:53.489Z,100791.16
2023-04-24T09:18:48.188Z,100781.25
2023-04-24T09:23:41.544Z,100760.44
2023-04-24T09:28:37.901Z,100738.91
2023-04-24T09:33:32.183Z,100730.53
2023-04-24T09:38:35.229Z,100757.47
2023-04-24T09:43:29.521Z,100679.59
2023-04-24T09:48:32.300Z,100757.38
2023-04-24T09:53:28.292Z,100688.16
2023-04-24T09:58:28.014Z,100652.28
2023-04-24T10:03:28.212Z,100717.94
2023-04-24T10:08:22.753Z,100631.72
2023-04-24T10:13:17.049Z,100658.09
2023-04-24T10:18:13.455Z,100681.09
2023-04-24T10:23:07.298Z,100733.56
2023-04-24T10:28:02.306Z,100726.16
2023-04-24T10:32:55.959Z,100704.41
2023-04-24T10:37:53.287Z,100734.25
2023-04-24T10:42:50.172Z,100719.28
2023-04-24T10:47:43.544Z,100626.09
2023-04-24T10:52:46.746Z,100560.38
2023-04-24T10:57:41.500Z,100579.53
2023-04-24T11:02:39.850Z,100619.69
2023-04-24T11:08:13.995Z,100668.91
2023-04-24T11:13:12.767Z,100687.72
2023-04-24T11:18:11.565Z,100632.63
2023-04-24T11:23:07.893Z,100542.13
2023-04-24T11:28:07.240Z,100599.06
2023-04-24T11:33:06.714Z,100615.22
2023-04-24T11:38:22.703Z,100640.75
2023-04-24T11:43:20.991Z,100681.25
2023-04-24T11:48:22.708Z,100603.91
2023-04-24T11:53:17.041Z,100516.28
2023-04-24T11:58:10.519Z,100481.16
2023-04-24T12:03:09.334Z,100509.84
2023-04-24T12:08:07.722Z,100605.25
2023-04-24T12:13:11.843Z,100568.16
2023-04-24T12:23:19.939Z,100488.28
2023-04-24T12:28:15.199Z,100615.09
2023-04-24T12:33:11.635Z,100526.59
2023-04-24T12:38:09.209Z,100508.66
2023-04-24T12:43:06.569Z,100444.47
2023-04-24T12:48:03.287Z,100429.72
2023-04-24T12:52:57.858Z,100433.22
2023-04-24T12:57:56.476Z,100462.28
2023-04-24T13:02:52.921Z,100563.53
2023-04-24T13:07:46.866Z,100493.13
2023-04-24T13:12:40.541Z,100571.47
2023-04-24T13:17:35.724Z,100577.97
2023-04-24T13:22:32.993Z,100491.34
2023-04-24T13:27:26.279Z,100464.19
2023-04-24T13:32:19.797Z,100487.53
2023-04-24T13:37:13.292Z,100553.66
2023-04-24T13:42:09.988Z,100406.72
2023-04-24T13:47:03.803Z,100441.38
2023-04-24T13:51:57.995Z,100467.38
2023-04-24T13:56:53.651Z,100489.56
2023-04-24T14:01:50.398Z,100535.75
2023-04-24T14:06:43.904Z,100392.19
2023-04-24T14:11:37.792Z,100534.47
2023-04-24T14:16:31.833Z,100427.16
2023-04-24T14:21:36.828Z,100481.38
2023-04-24T14:26:30.353Z,100421.69
2023-04-24T14:31:23.577Z,100513.78
2023-04-24T14:36:20.092Z,100452.91
2023-04-24T14:41:24.002Z,100515.25
2023-04-24T14:46:17.695Z,100420.53
2023-04-24T14:51:11.085Z,100512.75
2023-04-24T14:56:09.727Z,100506.41
2023-04-24T15:01:06.444Z,100502.50
2023-04-24T15:06:06.181Z,100363.25
2023-04-24T15:11:00.556Z,100497.16
2023-04-24T15:15:56.314Z,100450.94
2023-04-24T15:20:50.866Z,100487.44
2023-04-24T15:25:44.167Z,100470.78
2023-04-24T15:30:37.378Z,100435.94
2023-04-24T15:35:32.998Z,100453.50
2023-04-24T15:40:31.284Z,100449.94
2023-04-24T15:45:27.512Z,100439.41
2023-04-24T15:50:22.744Z,100375.41
2023-04-24T15:55:16.003Z,100357.56
2023-04-24T16:00:12.120Z,100441.22
2023-04-24T16:05:07.582Z,100422.72
2023-04-24T16:10:04.552Z,100426.56
2023-04-24T16:14:58.071Z,100424.63
2023-04-24T16:19:55.952Z,100405.75
2023-04-24T16:24:49.210Z,100430.88
2023-04-24T16:29:42.535Z,100437.00
2023-04-24T16:34:35.882Z,100393.66
2023-04-24T16:39:30.542Z,100348.88
2023-04-24T16:44:23.767Z,100426.94
2023-04-24T16:49:18.735Z,100372.97
2023-04-24T16:54:12.686Z,100425.34
2023-04-24T16:59:07.650Z,100428.53
2023-04-24T17:04:04.134Z,100414.50
2023-04-24T17:08:57.446Z,100409.59
2023-04-24T17:13:50.691Z,100423.81
2023-04-24T17:18:45.282Z,100416.03
2023-04-24T17:23:38.971Z,100431.69
2023-04-24T17:28:33.266Z,100434.72
2023-04-24T17:33:26.690Z,100341.50
2023-04-24T17:38:21.746Z,100449.06
2023-04-24T17:43:18.092Z,100435.31
2023-04-24T17:48:11.555Z,100407.16
2023-04-24T17:53:05.043Z,100439.66
2023-04-24T17:58:01.962Z,100424.19
2023-04-24T18:03:00.984Z,100426.84
2023-04-24T18:07:54.838Z,100407.88
2023-04-24T18:12:49.461Z,100440.88
2023-04-24T18:17:44.520Z,100482.63
2023-04-24T18:22:38.020Z,100488.72
2023-04-24T18:27:31.947Z,100506.25
2023-04-24T18:32:28.355Z,100517.94
2023-04-24T18:37:22.971Z,100508.56
2023-04-24T18:42:16.235Z,100481.78
2023-04-24T18:47:10.032Z,100400.22
2023-04-24T18:52:03.508Z,100492.34
2023-04-24T18:56:58.225Z,100402.84
2023-04-24T19:01:51.594Z,100438.97
2023-04-24T19:06:44.784Z,100435.00
2023-04-24T19:11:37.905Z,100328.19
2023-04-24T19:16:33.845Z,100470.63
2023-04-24T19:21:27.585Z,100466.00
2023-04-24T19:26:24.073Z,100441.91
2023-04-24T19:31:21.171Z,100440.72
2023-04-24T19:36:19.005Z,100444.00
2023-04-24T19:41:12.455Z,100484.47
2023-04-24T19:46:09.757Z,100484.75
2023-04-24T19:51:13.488Z,100386.78
2023-04-24T19:56:09.307Z,100461.06
2023-04-24T20:01:06.373Z,100480.69
2023-04-24T20:05:59.630Z,100431.69
2023-04-24T20:10:54.661Z,100492.91
2023-04-24T20:15:49.616Z,100455.06
2023-04-24T20:20:46.759Z,100521.59
2023-04-24T20:25:40.466Z,100524.63
2023-04-24T20:30:38.086Z,100525.25
2023-04-24T20:35:35.306Z,100519.16
2023-04-24T20:40:35.513Z,100498.63
2023-04-24T20:45:31.282Z,100428.69
2023-04-24T20:50:30.656Z,100462.81
2023-04-24T20:55:25.764Z,100456.38
2023-04-24T21:00:23.951Z,100462.47
2023-04-24T21:05:18.619Z,100418.78
2023-04-24T21:10:16.658Z,100489.53
2023-04-24T21:15:12.129Z,100462.69
2023-04-24T21:20:06.391Z,100485.28
2023-04-24T21:25:01.216Z,100483.66
2023-04-24T21:29:56.942Z,100463.06
2023-04-24T21:34:51.828Z,100490.03
2023-04-24T21:39:46.293Z,100482.19
2023-04-24T21:44:39.624Z,100479.66
2023-04-24T21:49:34.414Z,100473.44
2023-04-24T21:54:32.813Z,100480.44
2023-04-24T21:59:26.154Z,100475.88
2023-04-24T22:04:19.412Z,100457.31
2023-04-24T22:09:12.753Z,100438.19
2023-04-24T22:14:07.344Z,100472.53
2023-04-24T22:19:00.443Z,100433.88
2023-04-24T22:23:53.615Z,100451.13
2023-04-24T22:28:48.213Z,100392.06
2023-04-24T22:33:43.423Z,100384.03
2023-04-24T22:38:36.548Z,100427.47
2023-04-24T22:43:29.908Z,100346.81
2023-04-24T22:48:23.178Z,100427.91
2023-04-24T22:53:17.681Z,100375.22
2023-04-24T22:58:10.999Z,100351.44
2023-04-24T23:03:04.667Z,100405.25
2023-04-24T23:07:58.273Z,100382.72
2023-04-24T23:12:52.831Z,100387.00
2023-04-24T23:17:45.995Z,100390.88
2023-04-24T23:22:41.371Z,100381.09
2023-04-24T23:27:34.581Z,100390.66
2023-04-24T23:32:29.224Z,100383.00
2023-04-24T23:37:22.777Z,100408.16
2023-04-24T23:42:15.879Z,100357.31
2023-04-24T23:47:09.039Z,100408.50
2023-04-24T23:52:03.795Z,100394.44
2023-04-24T23:56:57.095Z,100398.16
